createdAt,value
2019-03-31T00:02:17.838Z,7.90
2019-03-31T00:04:47.221Z,8.90
2019-03-31T00:07:16.670Z,8.87
2019-03-31T00:09:46.077Z,8.83
2019-03-31T00:12:22.369Z,9.40
2019-03-31T00:14:51.735Z,8.10
2019-03-31T00:17:22.292Z,8.60
2019-03-31T00:19:51.874Z,8.67
2019-03-31T00:22:21.266Z,8.70
2019-03-31T00:24:53.313Z,9.00
2019-03-31T00:27:21.816Z,8.77
2019-03-31T00:29:51.319Z,8.27
2019-03-31T00:32:20.750Z,8.30
2019-03-31T00:34:50.178Z,7.83
2019-03-31T00:37:22.710Z,7.40
2019-03-31T00:39:52.042Z,6.50
2019-03-31T00:42:22.762Z,7.70
2019-03-31T00:44:54.308Z,7.60
2019-03-31T00:47:23.728Z,7.43
2019-03-31T00:49:53.160Z,7.20
2019-03-31T00:52:23.740Z,8.60
2019-03-31T00:54:53.265Z,8.40
2019-03-31T00:57:22.687Z,8.30
2019-03-31T00:59:52.110Z,8.43
2019-03-31T01:02:33.968Z,8.67
2019-03-31T01:05:05.445Z,7.57
2019-03-31T01:07:34.915Z,6.97
2019-03-31T01:10:04.628Z,8.03
2019-03-31T01:12:34.151Z,7.00
2019-03-31T01:15:05.361Z,7.60
2019-03-31T01:17:34.871Z,7.80
2019-03-31T01:20:04.508Z,8.63
2019-03-31T01:22:34.877Z,8.10
2019-03-31T01:25:08.314Z,7.80
2019-03-31T01:27:38.133Z,8.07
2019-03-31T01:30:09.183Z,9.10
2019-03-31T01:32:40.962Z,7.47
2019-03-31T01:35:13.093Z,8.13
2019-03-31T01:37:42.466Z,8.47
2019-03-31T01:40:11.810Z,8.10
2019-03-31T01:42:48.492Z,7.90
2019-03-31T01:45:19.682Z,8.27
2019-03-31T01:47:49.127Z,7.97
2019-03-31T01:50:18.631Z,8.33
2019-03-31T01:52:48.050Z,8.20
2019-03-31T01:55:17.428Z,7.80
2019-03-31T01:57:46.775Z,7.00
2019-03-31T02:00:30.040Z,7.70
2019-03-31T02:02:59.469Z,7.00
2019-03-31T02:05:28.892Z,8.20
2019-03-31T02:07:58.324Z,7.67
2019-03-31T02:10:27.846Z,7.20
2019-03-31T02:12:57.239Z,8.30
2019-03-31T02:15:26.725Z,8.03
2019-03-31T02:17:56.189Z,8.57
2019-03-31T02:20:25.621Z,8.90
2019-03-31T02:22:55.071Z,7.23
2019-03-31T02:25:24.514Z,8.40
2019-03-31T02:27:53.899Z,7.87
2019-03-31T02:30:23.414Z,8.67
2019-03-31T02:32:52.867Z,8.97
2019-03-31T02:35:22.334Z,7.37
2019-03-31T02:37:51.722Z,8.57
2019-03-31T02:40:21.102Z,8.27
2019-03-31T02:42:50.466Z,8.30
2019-03-31T02:45:19.924Z,8.77
2019-03-31T02:47:49.454Z,8.10
2019-03-31T02:50:41.142Z,8.10
2019-03-31T02:53:10.545Z,8.63
2019-03-31T02:55:39.986Z,8.83
2019-03-31T02:58:09.349Z,8.40
2019-03-31T03:00:38.735Z,9.83
2019-03-31T03:03:08.159Z,9.47
2019-03-31T03:05:37.496Z,10.20
2019-03-31T03:08:06.970Z,10.20
2019-03-31T03:10:36.804Z,10.30
2019-03-31T03:13:06.314Z,9.83
2019-03-31T03:15:40.214Z,10.23
2019-03-31T03:18:09.647Z,10.47
2019-03-31T03:20:39.944Z,10.77
2019-03-31T03:23:09.353Z,10.10
2019-03-31T03:25:54.993Z,10.00
2019-03-31T03:28:09.916Z,8.80
2019-03-31T03:30:39.421Z,9.70
2019-03-31T03:33:16.638Z,9.87
2019-03-31T03:35:40.087Z,10.53
2019-03-31T03:38:09.517Z,9.33
2019-03-31T03:40:39.034Z,11.93
2019-03-31T03:43:08.496Z,10.40
2019-03-31T03:45:37.915Z,10.30
2019-03-31T03:48:09.264Z,11.00
2019-03-31T03:50:38.614Z,10.13
2019-03-31T03:53:08.047Z,10.07
2019-03-31T03:55:37.489Z,9.47
2019-03-31T03:58:06.994Z,10.40
2019-03-31T04:00:36.507Z,10.93
2019-03-31T04:03:05.930Z,10.50
2019-03-31T04:05:35.477Z,10.00
2019-03-31T04:08:04.932Z,10.70
2019-03-31T04:11:10.970Z,10.00
2019-03-31T04:13:40.369Z,9.13
2019-03-31T04:16:09.894Z,11.20
2019-03-31T04:18:39.336Z,9.70
2019-03-31T04:21:08.784Z,10.53
2019-03-31T04:23:38.603Z,9.87
2019-03-31T04:26:08.232Z,9.83
2019-03-31T04:28:37.963Z,10.13
2019-03-31T04:31:07.453Z,9.50
2019-03-31T04:33:50.598Z,11.73
2019-03-31T04:36:10.014Z,10.10
2019-03-31T04:38:39.527Z,11.50
2019-03-31T04:41:08.890Z,9.87
2019-03-31T04:43:38.289Z,10.17
2019-03-31T04:46:07.786Z,10.67
2019-03-31T04:48:37.416Z,10.47
2019-03-31T04:51:06.770Z,10.93
2019-03-31T04:53:36.132Z,11.20
2019-03-31T04:56:05.515Z,10.97
2019-03-31T04:58:35.060Z,11.53
2019-03-31T05:01:04.611Z,11.80
2019-03-31T05:03:33.943Z,11.57
2019-03-31T05:06:03.489Z,11.37
2019-03-31T05:08:32.992Z,11.53
2019-03-31T05:11:02.365Z,11.30
2019-03-31T05:13:31.801Z,12.00
2019-03-31T05:16:01.244Z,12.40
2019-03-31T05:18:30.665Z,11.53
2019-03-31T05:21:00.292Z,12.27
2019-03-31T05:23:29.625Z,11.30
2019-03-31T05:25:58.972Z,10.43
2019-03-31T05:28:28.368Z,11.53
2019-03-31T05:30:57.737Z,11.20
2019-03-31T05:33:27.133Z,9.83
2019-03-31T05:35:56.590Z,9.67
2019-03-31T05:38:26.069Z,9.73
2019-03-31T05:40:55.454Z,10.27
2019-03-31T05:43:24.874Z,9.47
2019-03-31T05:45:54.242Z,10.07
2019-03-31T05:48:23.569Z,9.33
2019-03-31T05:50:53.385Z,10.13
2019-03-31T05:53:23.036Z,9.10
2019-03-31T05:55:52.474Z,10.63
2019-03-31T05:58:21.986Z,9.40
2019-03-31T06:00:51.680Z,10.97
2019-03-31T06:03:21.056Z,10.37
2019-03-31T06:05:52.651Z,10.00
2019-03-31T06:08:22.067Z,8.67
2019-03-31T06:10:51.512Z,9.57
2019-03-31T06:13:20.976Z,8.83
2019-03-31T06:15:50.364Z,8.10
2019-03-31T06:18:19.686Z,7.87
2019-03-31T06:20:49.094Z,7.57
2019-03-31T06:23:18.476Z,8.60
2019-03-31T06:25:47.813Z,7.10
2019-03-31T06:28:17.200Z,8.47
2019-03-31T06:30:46.597Z,8.13
2019-03-31T06:33:16.121Z,7.07
2019-03-31T06:35:45.484Z,7.37
2019-03-31T06:38:14.902Z,7.50
2019-03-31T06:40:46.864Z,8.17
2019-03-31T06:43:16.320Z,7.70
2019-03-31T06:45:45.744Z,7.70
2019-03-31T06:48:15.141Z,7.23
2019-03-31T06:50:44.675Z,8.57
2019-03-31T06:53:14.248Z,8.47
2019-03-31T06:55:43.768Z,9.10
2019-03-31T06:58:13.322Z,8.57
2019-03-31T07:00:42.974Z,8.57
2019-03-31T07:03:12.618Z,8.43
2019-03-31T07:05:42.158Z,8.10
2019-03-31T07:08:11.513Z,8.57
2019-03-31T07:10:41.037Z,7.70
2019-03-31T07:13:10.370Z,9.20
2019-03-31T07:15:39.827Z,9.27
2019-03-31T07:18:09.392Z,8.50
2019-03-31T07:20:38.828Z,9.57
2019-03-31T07:23:08.187Z,9.30
2019-03-31T07:25:38.385Z,10.00
2019-03-31T07:28:07.909Z,10.17
2019-03-31T07:30:37.362Z,10.60
2019-03-31T07:33:06.738Z,9.70
2019-03-31T07:35:38.827Z,10.07
2019-03-31T07:38:07.415Z,10.30
2019-03-31T07:40:37.054Z,9.63
2019-03-31T07:43:06.871Z,21.97
2019-03-31T07:45:36.611Z,13.30
2019-03-31T07:48:08.155Z,12.77
2019-03-31T07:50:37.424Z,10.80
2019-03-31T07:53:06.977Z,8.80
2019-03-31T07:55:36.447Z,9.70
2019-03-31T07:58:06.055Z,8.90
2019-03-31T08:00:35.488Z,10.60
2019-03-31T08:03:05.017Z,10.30
2019-03-31T08:05:37.599Z,10.73
2019-03-31T08:08:05.605Z,9.73
2019-03-31T08:10:34.991Z,12.33
2019-03-31T08:13:04.482Z,11.57
2019-03-31T08:15:33.934Z,11.63
2019-03-31T08:18:03.287Z,11.43
2019-03-31T08:20:32.738Z,10.60
2019-03-31T08:23:02.104Z,13.03
2019-03-31T08:25:31.472Z,12.07
2019-03-31T08:28:01.011Z,12.13
2019-03-31T08:30:30.531Z,12.23
2019-03-31T08:32:59.927Z,12.17
2019-03-31T08:35:29.396Z,13.70
2019-03-31T08:37:59.526Z,14.07
2019-03-31T08:40:28.882Z,19.90
2019-03-31T08:42:58.387Z,14.00
2019-03-31T08:45:30.396Z,12.57
2019-03-31T08:47:59.077Z,11.90
2019-03-31T08:50:28.585Z,12.83
2019-03-31T08:52:58.135Z,12.33
2019-03-31T08:55:27.720Z,12.33
2019-03-31T08:57:57.185Z,11.50
2019-03-31T09:00:34.119Z,12.27
2019-03-31T09:03:03.623Z,12.00
2019-03-31T09:05:32.981Z,12.37
2019-03-31T09:08:02.415Z,13.80
2019-03-31T09:10:31.835Z,12.03
2019-03-31T09:13:01.280Z,11.30
2019-03-31T09:15:30.824Z,13.03
2019-03-31T09:18:00.184Z,11.90
2019-03-31T09:20:29.735Z,12.07
2019-03-31T09:23:00.122Z,10.83
2019-03-31T09:25:29.609Z,11.00
2019-03-31T09:27:59.224Z,12.10
2019-03-31T09:30:28.740Z,13.10
2019-03-31T09:32:58.358Z,12.97
2019-03-31T09:35:27.870Z,13.33
2019-03-31T09:37:57.347Z,13.50
2019-03-31T09:40:26.730Z,14.37
2019-03-31T09:42:56.238Z,14.77
2019-03-31T09:45:25.613Z,15.33
2019-03-31T09:47:54.987Z,14.03
2019-03-31T09:50:24.298Z,13.43
2019-03-31T09:52:53.874Z,12.83
2019-03-31T09:55:23.391Z,12.03
2019-03-31T09:57:52.883Z,14.47
2019-03-31T10:00:43.365Z,15.10
2019-03-31T10:03:12.918Z,15.40
2019-03-31T10:05:42.439Z,16.20
2019-03-31T10:08:12.518Z,17.03
2019-03-31T10:10:42.239Z,17.80
2019-03-31T10:13:11.664Z,19.40
2019-03-31T10:15:41.030Z,16.23
2019-03-31T10:18:10.512Z,16.80
2019-03-31T10:20:39.977Z,17.73
2019-03-31T10:23:09.488Z,15.67
2019-03-31T10:25:38.816Z,14.20
2019-03-31T10:28:08.311Z,12.97
2019-03-31T10:30:37.806Z,13.73
2019-03-31T10:33:07.299Z,14.17
2019-03-31T10:35:36.805Z,14.60
2019-03-31T10:38:06.342Z,13.90
2019-03-31T10:40:35.829Z,13.47
2019-03-31T10:43:05.318Z,13.77
2019-03-31T10:45:34.783Z,13.10
2019-03-31T10:48:04.125Z,12.50
2019-03-31T10:50:33.609Z,12.43
2019-03-31T10:53:02.971Z,12.30
2019-03-31T10:55:32.500Z,13.63
2019-03-31T10:58:02.057Z,12.93
2019-03-31T11:00:35.597Z,11.70
2019-03-31T11:03:05.790Z,12.23
2019-03-31T11:05:35.107Z,11.60
2019-03-31T11:08:04.433Z,13.17
2019-03-31T11:10:33.827Z,13.53
2019-03-31T11:13:03.319Z,12.60
2019-03-31T11:15:32.728Z,13.00
2019-03-31T11:18:02.163Z,12.93
2019-03-31T11:20:31.608Z,12.37
2019-03-31T11:23:06.805Z,12.40
2019-03-31T11:25:36.244Z,12.33
2019-03-31T11:28:05.748Z,11.93
2019-03-31T11:30:35.136Z,11.40
2019-03-31T11:33:07.477Z,10.47
2019-03-31T11:35:35.903Z,13.30
2019-03-31T11:38:05.354Z,12.43
2019-03-31T11:40:34.916Z,12.87
2019-03-31T11:43:04.338Z,12.80
2019-03-31T11:45:33.686Z,12.03
2019-03-31T11:48:03.020Z,13.73
2019-03-31T11:50:32.443Z,11.77
2019-03-31T11:53:01.937Z,12.63
2019-03-31T11:55:31.446Z,11.80
2019-03-31T11:58:00.983Z,12.80
2019-03-31T12:00:32.943Z,11.83
2019-03-31T12:03:02.496Z,11.33
2019-03-31T12:05:32.069Z,12.70
2019-03-31T12:08:01.504Z,11.47
2019-03-31T12:10:30.958Z,12.10
2019-03-31T12:13:00.334Z,10.87
2019-03-31T12:15:30.085Z,12.20
2019-03-31T12:17:59.591Z,11.13
2019-03-31T12:20:29.212Z,11.13
2019-03-31T12:22:58.728Z,11.40
2019-03-31T12:25:28.072Z,12.87
2019-03-31T12:27:57.654Z,11.90
2019-03-31T12:30:29.839Z,12.30
2019-03-31T12:32:59.208Z,13.17
2019-03-31T12:35:28.639Z,12.33
2019-03-31T12:37:59.594Z,12.30
2019-03-31T12:40:33.317Z,13.70
2019-03-31T12:43:02.697Z,18.70
2019-03-31T12:45:32.340Z,13.57
2019-03-31T12:48:02.015Z,11.93
2019-03-31T12:50:31.691Z,20.97
2019-03-31T12:53:01.149Z,13.97
2019-03-31T12:55:30.617Z,14.70
2019-03-31T12:58:00.171Z,14.43
2019-03-31T13:00:29.576Z,13.70
2019-03-31T13:02:59.061Z,11.77
2019-03-31T13:05:28.508Z,11.87
2019-03-31T13:07:57.960Z,12.30
2019-03-31T13:10:27.444Z,11.03
2019-03-31T13:12:57.083Z,12.23
2019-03-31T13:15:26.547Z,12.53
2019-03-31T13:17:55.997Z,11.47
2019-03-31T13:20:25.379Z,12.90
2019-03-31T13:22:54.729Z,10.33
2019-03-31T13:25:24.331Z,10.97
2019-03-31T13:27:53.845Z,11.20
2019-03-31T13:30:23.306Z,11.50
2019-03-31T13:32:52.762Z,11.40
2019-03-31T13:35:22.483Z,11.50
2019-03-31T13:37:51.909Z,13.00
2019-03-31T13:40:21.425Z,12.50
2019-03-31T13:42:50.789Z,11.80
2019-03-31T13:45:20.338Z,14.03
2019-03-31T13:47:49.883Z,12.87
2019-03-31T13:50:19.530Z,11.83
2019-03-31T13:52:48.988Z,13.07
2019-03-31T13:55:20.048Z,11.67
2019-03-31T13:57:50.100Z,11.90
2019-03-31T14:00:34.726Z,9.83
2019-03-31T14:03:04.262Z,11.80
2019-03-31T14:05:33.920Z,11.87
2019-03-31T14:08:07.860Z,12.47
2019-03-31T14:10:37.282Z,11.43
2019-03-31T14:13:06.833Z,10.70
2019-03-31T14:15:36.362Z,13.90
2019-03-31T14:18:07.862Z,13.20
2019-03-31T14:20:40.610Z,12.10
2019-03-31T14:23:11.905Z,12.57
2019-03-31T14:25:41.422Z,11.53
2019-03-31T14:28:10.956Z,12.17
2019-03-31T14:30:40.715Z,10.90
2019-03-31T14:33:10.150Z,11.50
2019-03-31T14:35:39.663Z,11.50
2019-03-31T14:38:09.029Z,11.53
2019-03-31T14:40:38.516Z,12.20
2019-03-31T14:43:08.014Z,11.40
2019-03-31T14:45:40.035Z,12.00
2019-03-31T14:48:09.495Z,13.30
2019-03-31T14:50:40.009Z,12.87
2019-03-31T14:53:09.684Z,12.90
2019-03-31T14:55:39.044Z,12.53
2019-03-31T14:58:08.794Z,14.20
2019-03-31T15:00:38.477Z,14.37
2019-03-31T15:03:09.199Z,12.70
2019-03-31T15:05:38.558Z,13.90
2019-03-31T15:08:07.882Z,12.80
2019-03-31T15:10:37.431Z,12.77
2019-03-31T15:13:07.805Z,13.00
2019-03-31T15:15:37.308Z,12.80
2019-03-31T15:18:06.865Z,12.60
2019-03-31T15:20:36.486Z,14.27
2019-03-31T15:23:06.022Z,12.30
2019-03-31T15:25:36.749Z,11.70
2019-03-31T15:28:06.179Z,12.07
2019-03-31T15:30:37.124Z,14.27
2019-03-31T15:33:06.553Z,13.40
2019-03-31T15:35:37.740Z,14.20
2019-03-31T15:38:07.130Z,15.07
2019-03-31T15:40:36.690Z,15.97
2019-03-31T15:43:06.046Z,17.23
2019-03-31T15:45:35.571Z,16.93
2019-03-31T15:48:05.052Z,18.27
2019-03-31T15:50:35.652Z,18.80
2019-03-31T15:53:05.040Z,18.33
2019-03-31T15:55:34.511Z,19.97
2019-03-31T15:58:05.449Z,17.57
2019-03-31T16:00:35.159Z,19.03
2019-03-31T16:03:04.698Z,18.33
2019-03-31T16:05:34.164Z,19.03
2019-03-31T16:08:03.035Z,18.50
2019-03-31T16:10:32.048Z,20.03
2019-03-31T16:13:00.915Z,18.33
2019-03-31T16:15:29.854Z,19.07
2019-03-31T16:18:00.104Z,18.23
2019-03-31T16:20:28.979Z,17.00
2019-03-31T16:22:57.884Z,17.03
2019-03-31T16:25:29.462Z,15.80
2019-03-31T16:27:58.548Z,18.00
2019-03-31T16:30:27.581Z,17.13
2019-03-31T16:32:56.740Z,16.43
2019-03-31T16:35:25.626Z,17.10
2019-03-31T16:37:54.670Z,16.43
2019-03-31T16:40:23.595Z,17.40
2019-03-31T16:42:52.419Z,17.73
2019-03-31T16:45:21.524Z,17.13
2019-03-31T16:47:50.510Z,17.23
2019-03-31T16:50:19.482Z,18.00
2019-03-31T16:52:48.474Z,19.00
2019-03-31T16:55:17.290Z,18.27
2019-03-31T16:57:46.269Z,19.13
2019-03-31T17:00:15.570Z,20.47
2019-03-31T17:02:44.558Z,21.30
2019-03-31T17:05:21.742Z,21.50
2019-03-31T17:07:44.282Z,22.97
2019-03-31T17:10:13.339Z,20.50
2019-03-31T17:12:42.277Z,22.23
2019-03-31T17:15:11.605Z,20.27
2019-03-31T17:17:40.750Z,22.73
2019-03-31T17:20:09.800Z,23.03
2019-03-31T17:22:38.745Z,24.20
2019-03-31T17:25:07.661Z,25.10
2019-03-31T17:27:36.767Z,25.47
2019-03-31T17:30:07.507Z,27.40
2019-03-31T17:32:39.177Z,28.27
2019-03-31T17:35:08.201Z,27.17
2019-03-31T17:37:37.213Z,30.83
2019-03-31T17:40:07.219Z,30.00
2019-03-31T17:42:36.318Z,28.70
2019-03-31T17:45:06.462Z,29.83
2019-03-31T17:47:35.428Z,29.13
2019-03-31T17:50:05.971Z,32.07
2019-03-31T17:52:35.007Z,28.57
2019-03-31T17:55:04.022Z,28.47
2019-03-31T17:57:32.916Z,30.10
2019-03-31T18:00:01.805Z,30.97
2019-03-31T18:02:30.834Z,29.90
2019-03-31T18:05:09.958Z,29.83
2019-03-31T18:07:39.062Z,30.63
2019-03-31T18:10:19.947Z,29.13
2019-03-31T18:12:38.675Z,28.33
2019-03-31T18:15:07.766Z,29.17
2019-03-31T18:17:36.900Z,29.30
2019-03-31T18:20:06.168Z,29.23
2019-03-31T18:22:35.236Z,27.87
2019-03-31T18:25:07.062Z,26.60
2019-03-31T18:27:36.161Z,27.27
2019-03-31T18:30:05.722Z,28.40
2019-03-31T18:32:34.679Z,26.07
2019-03-31T18:35:03.822Z,28.97
2019-03-31T18:37:32.807Z,27.07
2019-03-31T18:40:02.216Z,25.70
2019-03-31T18:42:31.086Z,26.00
2019-03-31T18:45:01.154Z,25.40
2019-03-31T18:47:30.068Z,24.40
2019-03-31T18:49:59.098Z,24.03
2019-03-31T18:52:28.159Z,23.40
2019-03-31T18:55:14.873Z,22.43
2019-03-31T18:58:14.618Z,20.10
2019-03-31T19:01:08.975Z,21.30
2019-03-31T19:03:46.819Z,19.50
2019-03-31T19:06:41.089Z,19.73
2019-03-31T19:09:19.787Z,20.77
2019-03-31T19:12:02.781Z,17.03
2019-03-31T19:14:50.879Z,18.60
2019-03-31T19:17:49.439Z,17.70
2019-03-31T19:20:40.310Z,17.17
2019-03-31T19:23:25.032Z,18.40
2019-03-31T19:26:12.994Z,17.97
2019-03-31T19:28:48.453Z,18.90
2019-03-31T19:31:26.551Z,18.80
2019-03-31T19:34:29.460Z,18.23
2019-03-31T19:37:20.355Z,15.33
2019-03-31T19:40:02.122Z,17.43
2019-03-31T19:42:59.115Z,14.60
2019-03-31T19:45:41.544Z,16.30
2019-03-31T19:48:28.442Z,17.87
2019-03-31T19:51:16.238Z,16.87
2019-03-31T19:54:04.180Z,17.03
2019-03-31T19:56:50.948Z,17.00
2019-03-31T19:59:41.738Z,15.60
2019-03-31T20:02:28.135Z,15.17
2019-03-31T20:05:20.739Z,14.60
2019-03-31T20:08:11.780Z,14.23
2019-03-31T20:10:52.738Z,14.20
2019-03-31T20:13:34.677Z,15.00
2019-03-31T20:16:20.513Z,14.33
2019-03-31T20:19:10.092Z,15.40
2019-03-31T20:21:49.479Z,13.73
2019-03-31T20:24:30.079Z,14.53
2019-03-31T20:27:07.074Z,15.37
2019-03-31T20:29:49.163Z,13.83
2019-03-31T20:32:40.067Z,14.20
2019-03-31T20:35:33.732Z,13.97
2019-03-31T20:38:21.308Z,12.63
2019-03-31T20:41:12.434Z,14.93
2019-03-31T20:44:06.079Z,13.97
2019-03-31T20:46:35.416Z,13.30
2019-03-31T20:49:04.517Z,14.83
2019-03-31T20:51:33.696Z,13.33
2019-03-31T20:54:02.995Z,12.80
2019-03-31T20:56:32.090Z,13.30
2019-03-31T20:59:04.213Z,15.10
2019-03-31T21:01:33.127Z,13.30
2019-03-31T21:04:02.140Z,15.37
2019-03-31T21:06:33.655Z,13.40
2019-03-31T21:09:03.807Z,13.10
2019-03-31T21:11:32.867Z,13.00
2019-03-31T21:14:01.854Z,12.23
2019-03-31T21:16:30.847Z,12.80
2019-03-31T21:19:02.908Z,14.07
2019-03-31T21:21:31.932Z,12.37
2019-03-31T21:24:00.878Z,11.90
2019-03-31T21:26:29.973Z,13.47
2019-03-31T21:28:58.968Z,11.50
2019-03-31T21:31:27.911Z,11.10
2019-03-31T21:33:56.801Z,11.87
2019-03-31T21:36:25.938Z,11.67
2019-03-31T21:38:57.775Z,12.63
2019-03-31T21:41:26.606Z,11.90
2019-03-31T21:43:55.618Z,11.70
2019-03-31T21:46:24.613Z,11.17
2019-03-31T21:48:53.532Z,12.53
2019-03-31T21:51:22.565Z,12.20
2019-03-31T21:53:51.555Z,11.73
2019-03-31T21:56:21.692Z,11.10
2019-03-31T21:58:53.987Z,10.83
2019-03-31T22:01:23.034Z,10.60
2019-03-31T22:03:51.919Z,11.60
2019-03-31T22:06:20.987Z,10.80
2019-03-31T22:08:50.063Z,11.40
2019-03-31T22:11:19.761Z,9.63
2019-03-31T22:13:50.760Z,11.10
2019-03-31T22:16:19.597Z,11.70
2019-03-31T22:18:48.605Z,11.57
2019-03-31T22:21:19.549Z,10.40
2019-03-31T22:23:57.744Z,10.53
2019-03-31T22:26:19.796Z,10.10
2019-03-31T22:28:49.027Z,9.20
2019-03-31T22:31:19.925Z,10.60
2019-03-31T22:33:48.922Z,10.93
2019-03-31T22:36:24.586Z,8.87
2019-03-31T22:38:53.783Z,10.80
2019-03-31T22:41:22.771Z,9.30
2019-03-31T22:43:51.552Z,9.20
2019-03-31T22:46:21.385Z,10.23
2019-03-31T22:48:50.289Z,9.60
2019-03-31T22:51:19.243Z,10.10
2019-03-31T22:53:48.066Z,9.20
2019-03-31T22:56:17.039Z,10.07
2019-03-31T22:58:45.895Z,9.20
2019-03-31T23:01:14.830Z,9.23
2019-03-31T23:03:43.769Z,10.20
2019-03-31T23:06:12.640Z,9.37
2019-03-31T23:08:41.605Z,9.60
2019-03-31T23:11:10.529Z,10.50
2019-03-31T23:13:39.552Z,9.83
2019-03-31T23:16:08.334Z,9.60
2019-03-31T23:18:37.215Z,9.40
2019-03-31T23:21:06.093Z,9.33
2019-03-31T23:23:34.891Z,9.80
2019-03-31T23:26:03.712Z,9.80
2019-03-31T23:28:32.760Z,8.20
2019-03-31T23:31:03.628Z,8.90
2019-03-31T23:33:32.253Z,9.57
2019-03-31T23:36:01.085Z,9.03
2019-03-31T23:38:29.938Z,8.87
2019-03-31T23:40:58.808Z,8.53
2019-03-31T23:43:27.666Z,10.23
2019-03-31T23:45:56.523Z,9.70
2019-03-31T23:48:25.393Z,8.57
2019-03-31T23:50:54.278Z,8.50
2019-03-31T23:53:23.065Z,9.50
2019-03-31T23:55:51.928Z,7.60
2019-03-31T23:58:20.796Z,8.30
